createdAt,value
2024-01-11T00:01:52.761Z,61.80
2024-01-11T00:04:20.963Z,64.30
2024-01-11T00:06:49.271Z,65.20
2024-01-11T00:09:17.543Z,62.70
2024-01-11T00:11:45.710Z,63.50
2024-01-11T00:14:13.941Z,64.90
2024-01-11T00:16:43.088Z,71.20
2024-01-11T00:19:11.373Z,68.00
2024-01-11T00:21:41.881Z,68.40
2024-01-11T00:24:10.475Z,64.90
2024-01-11T00:26:38.755Z,62.60
2024-01-11T00:29:07.053Z,57.20
2024-01-11T00:31:35.297Z,63.40
2024-01-11T00:34:03.673Z,61.50
2024-01-11T00:36:32.051Z,63.70
2024-01-11T00:39:00.529Z,60.20
2024-01-11T00:41:28.980Z,63.90
2024-01-11T00:43:57.297Z,60.90
2024-01-11T00:46:25.565Z,61.90
2024-01-11T00:48:56.574Z,63.50
2024-01-11T00:51:25.182Z,63.30
2024-01-11T00:53:53.317Z,57.80
2024-01-11T00:56:22.526Z,62.70
2024-01-11T00:58:50.726Z,62.90
2024-01-11T01:01:19.015Z,63.50
2024-01-11T01:03:47.179Z,63.00
2024-01-11T01:06:15.494Z,68.30
2024-01-11T01:08:43.677Z,67.60
2024-01-11T01:11:11.830Z,65.10
2024-01-11T01:13:40.166Z,64.90
2024-01-11T01:16:08.344Z,60.70
2024-01-11T01:18:36.570Z,63.50
2024-01-11T01:21:08.288Z,62.80
2024-01-11T01:23:36.503Z,59.40
2024-01-11T01:26:07.485Z,59.00
2024-01-11T01:28:35.967Z,59.30
2024-01-11T01:31:04.365Z,56.70
2024-01-11T01:33:32.855Z,58.00
2024-01-11T01:36:00.996Z,59.30
2024-01-11T01:38:29.124Z,60.20
2024-01-11T01:40:57.457Z,54.30
2024-01-11T01:43:25.511Z,59.00
2024-01-11T01:45:54.202Z,54.40
2024-01-11T01:48:22.836Z,54.10
2024-01-11T01:50:54.389Z,57.50
2024-01-11T01:53:23.670Z,51.60
2024-01-11T01:55:52.966Z,53.70
2024-01-11T01:58:21.811Z,53.10
2024-01-11T02:00:52.597Z,58.90
2024-01-11T02:03:21.275Z,54.00
2024-01-11T02:05:49.943Z,54.50
2024-01-11T02:08:20.580Z,55.70
2024-01-11T02:10:49.128Z,52.50
2024-01-11T02:13:17.400Z,52.70
2024-01-11T02:15:46.975Z,54.80
2024-01-11T02:18:15.370Z,55.20
2024-01-11T02:20:43.684Z,52.20
2024-01-11T02:23:19.903Z,55.90
2024-01-11T02:25:48.104Z,58.40
2024-01-11T02:28:16.278Z,59.70
2024-01-11T02:30:44.508Z,58.70
2024-01-11T02:33:17.461Z,59.40
2024-01-11T02:35:48.028Z,58.20
2024-01-11T02:38:17.231Z,57.90
2024-01-11T02:40:46.044Z,55.10
2024-01-11T02:43:14.739Z,51.30
2024-01-11T02:45:42.793Z,49.10
2024-01-11T02:48:11.059Z,53.20
2024-01-11T02:50:39.488Z,50.00
2024-01-11T02:53:07.641Z,51.60
2024-01-11T02:55:35.791Z,51.40
2024-01-11T02:58:04.090Z,51.20
2024-01-11T03:00:32.182Z,54.00
2024-01-11T03:03:00.371Z,51.10
2024-01-11T03:05:29.009Z,54.40
2024-01-11T03:07:57.297Z,57.50
2024-01-11T03:10:25.348Z,54.60
2024-01-11T03:12:53.422Z,55.10
2024-01-11T03:15:21.485Z,57.90
2024-01-11T03:17:49.853Z,57.00
2024-01-11T03:20:21.659Z,55.90
2024-01-11T03:22:49.786Z,58.30
2024-01-11T03:25:17.854Z,55.60
2024-01-11T03:27:46.331Z,56.80
2024-01-11T03:30:14.818Z,56.40
2024-01-11T03:32:43.241Z,56.00
2024-01-11T03:35:11.659Z,55.60
2024-01-11T03:37:40.048Z,52.50
2024-01-11T03:40:08.638Z,56.50
2024-01-11T03:42:36.696Z,54.90
2024-01-11T03:45:06.056Z,58.00
2024-01-11T03:47:34.294Z,61.30
2024-01-11T03:50:03.390Z,63.00
2024-01-11T03:52:31.547Z,63.80
2024-01-11T03:54:59.712Z,57.70
2024-01-11T03:57:27.984Z,58.80
2024-01-11T03:59:56.064Z,56.10
2024-01-11T04:02:24.225Z,58.20
2024-01-11T04:04:52.711Z,55.60
2024-01-11T04:07:20.795Z,57.20
2024-01-11T04:09:48.875Z,63.90
2024-01-11T04:12:17.029Z,58.70
2024-01-11T04:14:45.276Z,64.00
2024-01-11T04:17:13.669Z,60.70
2024-01-11T04:19:41.955Z,59.30
2024-01-11T04:22:10.226Z,67.30
2024-01-11T04:24:38.294Z,70.10
2024-01-11T04:27:06.668Z,65.20
2024-01-11T04:29:34.871Z,64.70
2024-01-11T04:32:03.096Z,66.90
2024-01-11T04:34:32.612Z,68.40
2024-01-11T04:37:00.999Z,63.20
2024-01-11T04:39:29.172Z,68.30
2024-01-11T04:41:57.246Z,67.50
2024-01-11T04:44:27.885Z,66.20
2024-01-11T04:46:56.436Z,67.90
2024-01-11T04:49:25.004Z,67.20
2024-01-11T04:51:53.220Z,70.20
2024-01-11T04:54:21.382Z,71.20
2024-01-11T04:56:49.607Z,71.90
2024-01-11T04:59:17.871Z,71.40
2024-01-11T05:01:47.446Z,69.40
2024-01-11T05:04:15.605Z,67.00
2024-01-11T05:06:44.061Z,65.50
2024-01-11T05:09:12.269Z,65.40
2024-01-11T05:11:40.485Z,57.50
2024-01-11T05:14:08.777Z,54.30
2024-01-11T05:16:37.292Z,54.80
2024-01-11T05:19:05.471Z,55.40
2024-01-11T05:21:33.732Z,55.80
2024-01-11T05:24:02.736Z,56.10
2024-01-11T05:26:31.200Z,41.70
2024-01-11T05:28:59.962Z,41.40
2024-01-11T05:31:28.242Z,39.80
2024-01-11T05:33:56.642Z,41.60
2024-01-11T05:36:25.131Z,45.10
2024-01-11T05:38:53.196Z,40.90
2024-01-11T05:41:21.279Z,34.70
2024-01-11T05:43:49.441Z,36.90
2024-01-11T05:46:17.510Z,37.50
2024-01-11T05:48:45.811Z,37.70
2024-01-11T05:51:14.064Z,42.00
2024-01-11T05:53:42.245Z,39.50
2024-01-11T05:56:12.133Z,41.50
2024-01-11T05:58:41.400Z,41.10
2024-01-11T06:01:10.331Z,44.80
2024-01-11T06:03:39.916Z,49.70
2024-01-11T06:06:08.653Z,44.80
2024-01-11T06:08:36.944Z,42.80
2024-01-11T06:11:05.789Z,43.00
2024-01-11T06:13:34.276Z,46.00
2024-01-11T06:16:02.851Z,43.70
2024-01-11T06:18:32.036Z,42.10
2024-01-11T06:21:00.328Z,39.90
2024-01-11T06:23:28.966Z,40.40
2024-01-11T06:25:57.423Z,41.00
2024-01-11T06:28:25.562Z,41.40
2024-01-11T06:30:55.104Z,39.20
2024-01-11T06:33:23.505Z,37.70
2024-01-11T06:35:51.983Z,33.10
2024-01-11T06:38:20.220Z,41.30
2024-01-11T06:40:50.015Z,31.70
2024-01-11T06:43:18.040Z,33.50
2024-01-11T06:45:46.289Z,33.50
2024-01-11T06:48:14.587Z,39.40
2024-01-11T06:50:43.049Z,36.00
2024-01-11T06:53:11.300Z,32.00
2024-01-11T06:55:39.582Z,32.00
2024-01-11T06:58:07.937Z,38.20
2024-01-11T07:00:36.914Z,40.00
2024-01-11T07:03:05.085Z,35.20
2024-01-11T07:05:33.570Z,37.30
2024-01-11T07:08:01.779Z,45.70
2024-01-11T07:10:30.024Z,38.60
2024-01-11T07:12:58.145Z,36.50
2024-01-11T07:15:26.471Z,34.90
2024-01-11T07:17:54.991Z,40.80
2024-01-11T07:20:23.278Z,33.40
2024-01-11T07:22:51.513Z,35.50
2024-01-11T07:25:19.567Z,33.60
2024-01-11T07:27:47.599Z,33.00
2024-01-11T07:30:16.411Z,34.80
2024-01-11T07:32:44.893Z,30.50
2024-01-11T07:35:17.658Z,30.90
2024-01-11T07:37:47.301Z,30.60
2024-01-11T07:40:15.620Z,31.50
2024-01-11T07:42:44.447Z,31.60
2024-01-11T07:45:12.677Z,29.80
2024-01-11T07:47:41.481Z,32.20
2024-01-11T07:50:16.684Z,32.00
2024-01-11T07:52:44.921Z,34.60
2024-01-11T07:55:14.263Z,34.60
2024-01-11T07:57:42.850Z,35.90
2024-01-11T08:00:11.396Z,32.30
2024-01-11T08:02:42.376Z,36.90
2024-01-11T08:05:10.994Z,34.30
2024-01-11T08:07:39.701Z,34.00
2024-01-11T08:10:08.486Z,37.60
2024-01-11T08:12:37.628Z,33.00
2024-01-11T08:15:06.549Z,34.60
2024-01-11T08:17:34.711Z,32.30
2024-01-11T08:20:03.045Z,34.00
2024-01-11T08:22:35.071Z,36.00
2024-01-11T08:25:05.870Z,35.40
2024-01-11T08:27:34.901Z,35.20
2024-01-11T08:30:03.683Z,37.50
2024-01-11T08:32:32.764Z,34.80
2024-01-11T08:35:01.441Z,35.20
2024-01-11T08:37:29.764Z,33.40
2024-01-11T08:39:57.807Z,34.30
2024-01-11T08:42:26.003Z,35.60
2024-01-11T08:44:54.263Z,34.80
2024-01-11T08:47:22.615Z,33.90
2024-01-11T08:49:51.435Z,32.30
2024-01-11T08:52:19.428Z,33.20
2024-01-11T08:54:47.669Z,31.10
2024-01-11T08:57:16.372Z,31.20
2024-01-11T08:59:44.716Z,33.50
2024-01-11T09:02:16.750Z,32.30
2024-01-11T09:04:48.946Z,32.60
2024-01-11T09:07:17.543Z,34.20
2024-01-11T09:09:53.664Z,34.80
2024-01-11T09:12:25.174Z,33.60
2024-01-11T09:14:53.615Z,32.60
2024-01-11T09:17:23.206Z,34.90
2024-01-11T09:19:52.226Z,34.80
2024-01-11T09:22:20.510Z,33.80
2024-01-11T09:24:48.686Z,35.00
2024-01-11T09:27:17.051Z,34.80
2024-01-11T09:29:46.102Z,36.80
2024-01-11T09:32:14.601Z,36.60
2024-01-11T09:34:42.988Z,36.10
2024-01-11T09:37:11.178Z,36.60
2024-01-11T09:39:39.616Z,36.00
2024-01-11T09:42:08.752Z,35.70
2024-01-11T09:44:41.006Z,35.90
2024-01-11T09:47:11.734Z,38.10
2024-01-11T09:49:43.940Z,32.90
2024-01-11T09:52:14.396Z,35.20
2024-01-11T09:54:42.925Z,35.80
2024-01-11T09:57:11.314Z,33.80
2024-01-11T09:59:39.630Z,37.90
2024-01-11T10:02:11.096Z,37.70
2024-01-11T10:04:39.302Z,34.50
2024-01-11T10:07:08.189Z,36.50
2024-01-11T10:09:36.879Z,34.30
2024-01-11T10:12:06.317Z,35.50
2024-01-11T10:14:35.039Z,33.60
2024-01-11T10:17:03.279Z,36.70
2024-01-11T10:19:31.694Z,35.60
2024-01-11T10:22:00.708Z,35.90
2024-01-11T10:24:29.768Z,34.50
2024-01-11T10:26:59.706Z,36.40
2024-01-11T10:29:32.024Z,36.30
2024-01-11T10:32:00.696Z,35.70
2024-01-11T10:34:29.080Z,35.20
2024-01-11T10:36:58.147Z,35.60
2024-01-11T10:39:27.564Z,35.90
2024-01-11T10:42:07.094Z,35.50
2024-01-11T10:44:37.394Z,36.50
2024-01-11T10:47:09.112Z,37.30
2024-01-11T10:49:41.342Z,38.30
2024-01-11T10:52:09.904Z,34.90
2024-01-11T10:54:38.422Z,36.70
2024-01-11T10:57:06.965Z,34.80
2024-01-11T10:59:36.806Z,33.90
2024-01-11T11:02:07.857Z,38.70
2024-01-11T11:04:37.325Z,38.50
2024-01-11T11:07:08.976Z,37.20
2024-01-11T11:09:38.638Z,37.70
2024-01-11T11:12:07.366Z,36.10
2024-01-11T11:14:36.625Z,33.50
2024-01-11T11:17:05.774Z,34.50
2024-01-11T11:19:34.085Z,34.90
2024-01-11T11:22:06.251Z,35.10
2024-01-11T11:24:37.576Z,31.70
2024-01-11T11:27:06.851Z,30.90
2024-01-11T11:29:35.090Z,31.30
2024-01-11T11:32:04.612Z,29.40
2024-01-11T11:34:46.587Z,32.30
2024-01-11T11:37:24.451Z,30.60
2024-01-11T11:39:53.114Z,30.50
2024-01-11T11:42:26.000Z,30.20
2024-01-11T11:44:54.296Z,30.00
2024-01-11T11:47:24.575Z,30.00
2024-01-11T11:50:04.665Z,27.30
2024-01-11T11:52:37.979Z,28.90
2024-01-11T11:55:10.000Z,27.00
2024-01-11T11:57:38.165Z,24.70
2024-01-11T12:00:07.861Z,28.20
2024-01-11T12:02:43.132Z,21.00
2024-01-11T12:05:11.598Z,22.00
2024-01-11T12:07:39.978Z,20.10
2024-01-11T12:10:08.240Z,20.00
2024-01-11T12:12:38.975Z,18.70
2024-01-11T12:15:07.871Z,18.50
2024-01-11T12:17:36.146Z,18.90
2024-01-11T12:20:05.052Z,19.10
2024-01-11T12:22:33.405Z,19.70
2024-01-11T12:25:02.619Z,17.60
2024-01-11T12:27:31.855Z,17.80
2024-01-11T12:30:00.236Z,16.20
2024-01-11T12:32:31.222Z,19.20
2024-01-11T12:34:59.663Z,18.10
2024-01-11T12:37:28.183Z,16.20
2024-01-11T12:39:59.885Z,19.00
2024-01-11T12:42:30.873Z,19.80
2024-01-11T12:44:59.774Z,19.20
2024-01-11T12:47:28.961Z,21.50
2024-01-11T12:49:57.658Z,19.70
2024-01-11T12:52:28.758Z,17.40
2024-01-11T12:54:58.158Z,18.10
2024-01-11T12:57:26.520Z,17.10
2024-01-11T12:59:54.942Z,16.90
2024-01-11T13:02:23.066Z,18.40
2024-01-11T13:04:52.112Z,16.40
2024-01-11T13:07:20.483Z,16.30
2024-01-11T13:09:48.702Z,15.70
2024-01-11T13:12:16.821Z,15.60
2024-01-11T13:14:45.077Z,15.20
2024-01-11T13:17:13.505Z,17.30
2024-01-11T13:19:41.759Z,15.00
2024-01-11T13:22:10.236Z,14.90
2024-01-11T13:24:38.307Z,14.20
2024-01-11T13:27:06.657Z,14.80
2024-01-11T13:29:35.178Z,14.40
2024-01-11T13:32:05.762Z,13.80
2024-01-11T13:34:34.061Z,14.30
2024-01-11T13:37:02.442Z,14.40
2024-01-11T13:39:30.611Z,14.50
2024-01-11T13:41:59.617Z,13.80
2024-01-11T13:44:28.067Z,14.70
2024-01-11T13:46:56.466Z,14.40
2024-01-11T13:49:26.580Z,15.90
2024-01-11T13:52:00.914Z,15.10
2024-01-11T13:54:30.335Z,15.60
2024-01-11T13:56:58.483Z,14.50
2024-01-11T13:59:27.402Z,17.60
2024-01-11T14:01:55.639Z,18.00
2024-01-11T14:04:25.180Z,18.10
2024-01-11T14:06:54.012Z,15.60
2024-01-11T14:09:23.633Z,16.30
2024-01-11T14:11:51.839Z,15.40
2024-01-11T14:14:22.032Z,14.80
2024-01-11T14:16:50.408Z,16.00
2024-01-11T14:19:18.770Z,14.40
2024-01-11T14:21:47.081Z,17.30
2024-01-11T14:24:18.207Z,15.20
2024-01-11T14:26:51.490Z,16.20
2024-01-11T14:29:19.591Z,15.40
2024-01-11T14:31:47.839Z,16.90
2024-01-11T14:34:16.025Z,14.60
2024-01-11T14:36:44.187Z,17.10
2024-01-11T14:39:12.373Z,15.30
2024-01-11T14:41:40.479Z,15.50
2024-01-11T14:44:09.063Z,16.10
2024-01-11T14:46:37.207Z,15.40
2024-01-11T14:49:05.911Z,14.20
2024-01-11T14:51:35.261Z,17.60
2024-01-11T14:54:05.096Z,20.30
2024-01-11T14:56:33.532Z,20.10
2024-01-11T14:59:03.329Z,15.50
2024-01-11T15:01:32.302Z,21.00
2024-01-11T15:04:00.682Z,20.20
2024-01-11T15:06:29.213Z,15.10
2024-01-11T15:08:57.848Z,13.90
2024-01-11T15:11:27.060Z,14.20
2024-01-11T15:13:55.271Z,22.30
2024-01-11T15:16:23.957Z,17.40
2024-01-11T15:18:52.260Z,17.60
2024-01-11T15:21:20.396Z,17.80
2024-01-11T15:23:48.597Z,23.10
2024-01-11T15:26:16.971Z,20.20
2024-01-11T15:28:45.143Z,20.30
2024-01-11T15:31:13.256Z,21.20
2024-01-11T15:33:41.707Z,23.80
2024-01-11T15:36:11.077Z,23.40
2024-01-11T15:38:39.418Z,22.00
2024-01-11T15:41:07.664Z,28.80
2024-01-11T15:43:37.059Z,20.00
2024-01-11T15:46:05.914Z,16.40
2024-01-11T15:48:34.251Z,17.90
2024-01-11T15:51:05.246Z,17.80
2024-01-11T15:53:33.652Z,17.40
2024-01-11T15:56:02.389Z,15.80
2024-01-11T15:58:30.463Z,17.20
2024-01-11T16:00:58.556Z,15.00
2024-01-11T16:03:26.711Z,17.50
2024-01-11T16:05:55.408Z,15.90
2024-01-11T16:08:23.695Z,17.90
2024-01-11T16:10:52.054Z,17.00
2024-01-11T16:13:20.225Z,15.60
2024-01-11T16:15:49.415Z,15.60
2024-01-11T16:18:19.167Z,17.00
2024-01-11T16:20:47.645Z,15.40
2024-01-11T16:23:16.009Z,17.10
2024-01-11T16:25:44.151Z,20.50
2024-01-11T16:28:12.219Z,16.10
2024-01-11T16:30:40.526Z,18.30
2024-01-11T16:33:10.311Z,19.30
2024-01-11T16:35:45.140Z,23.40
2024-01-11T16:38:20.620Z,22.00
2024-01-11T16:40:49.369Z,14.90
2024-01-11T16:43:17.740Z,20.80
2024-01-11T16:45:45.916Z,16.60
2024-01-11T16:48:18.618Z,15.40
2024-01-11T16:50:48.617Z,18.60
2024-01-11T16:53:17.111Z,21.60
2024-01-11T16:55:45.886Z,16.10
2024-01-11T16:58:14.264Z,15.20
2024-01-11T17:00:43.297Z,16.90
2024-01-11T17:03:11.734Z,15.40
2024-01-11T17:05:40.225Z,20.10
2024-01-11T17:08:08.615Z,16.90
2024-01-11T17:10:39.062Z,17.80
2024-01-11T17:15:36.378Z,15.90
2024-01-11T17:18:05.113Z,12.50
2024-01-11T17:20:33.249Z,14.90
2024-01-11T17:23:01.542Z,11.70
2024-01-11T17:25:29.791Z,14.00
2024-01-11T17:27:57.957Z,13.40
2024-01-11T17:30:26.271Z,13.90
2024-01-11T17:32:55.827Z,12.80
2024-01-11T17:35:24.975Z,12.90
2024-01-11T17:37:53.209Z,11.00
2024-01-11T17:40:21.297Z,14.90
2024-01-11T17:42:49.553Z,13.70
2024-01-11T17:45:17.823Z,16.60
2024-01-11T17:47:46.420Z,13.80
2024-01-11T17:50:15.143Z,14.50
2024-01-11T17:52:45.970Z,11.40
2024-01-11T17:55:15.327Z,11.20
2024-01-11T17:57:43.710Z,12.40
2024-01-11T18:00:13.971Z,11.20
2024-01-11T18:02:42.194Z,10.80
2024-01-11T18:05:10.885Z,10.00
2024-01-11T18:07:39.274Z,10.40
2024-01-11T18:10:08.147Z,12.40
2024-01-11T18:12:36.220Z,13.00
2024-01-11T18:15:04.953Z,10.90
2024-01-11T18:17:33.271Z,12.00
2024-01-11T18:20:01.654Z,11.60
2024-01-11T18:22:31.612Z,11.10
2024-01-11T18:25:01.083Z,18.00
2024-01-11T18:27:29.456Z,14.30
2024-01-11T18:29:58.442Z,14.20
2024-01-11T18:32:26.800Z,12.90
2024-01-11T18:34:57.128Z,10.40
2024-01-11T18:37:27.163Z,11.20
2024-01-11T18:39:55.228Z,13.00
2024-01-11T18:42:25.094Z,10.90
2024-01-11T18:44:54.904Z,12.90
2024-01-11T18:47:23.196Z,12.10
2024-01-11T18:49:51.399Z,13.10
2024-01-11T18:52:19.679Z,12.80
2024-01-11T18:54:54.197Z,14.00
2024-01-11T18:57:26.484Z,14.70
2024-01-11T18:59:56.458Z,14.00
2024-01-11T19:02:24.772Z,15.60
2024-01-11T19:04:52.965Z,15.50
2024-01-11T19:07:21.540Z,14.70
2024-01-11T19:09:49.703Z,16.20
2024-01-11T19:12:17.778Z,16.30
2024-01-11T19:14:46.850Z,16.90
2024-01-11T19:17:15.660Z,16.10
2024-01-11T19:19:43.926Z,16.60
2024-01-11T19:22:12.290Z,16.80
2024-01-11T19:24:40.563Z,16.40
2024-01-11T19:27:08.842Z,17.50
2024-01-11T19:29:36.933Z,15.80
2024-01-11T19:32:05.508Z,16.20
2024-01-11T19:34:33.703Z,17.00
2024-01-11T19:37:02.768Z,16.70
2024-01-11T19:39:30.927Z,16.50
2024-01-11T19:42:00.300Z,17.00
2024-01-11T19:44:28.873Z,17.90
2024-01-11T19:46:57.292Z,16.50
2024-01-11T19:49:25.587Z,16.90
2024-01-11T19:51:53.851Z,15.80
2024-01-11T19:54:22.120Z,15.10
2024-01-11T19:56:50.229Z,16.00
2024-01-11T19:59:19.438Z,14.90
2024-01-11T20:01:47.572Z,17.10
2024-01-11T20:04:15.842Z,15.60
2024-01-11T20:06:44.748Z,16.30
2024-01-11T20:09:16.694Z,15.90
2024-01-11T20:11:45.330Z,16.20
2024-01-11T20:14:13.875Z,16.90
2024-01-11T20:16:42.221Z,15.30
2024-01-11T20:19:10.459Z,14.20
2024-01-11T20:21:38.676Z,14.80
2024-01-11T20:24:07.249Z,16.10
2024-01-11T20:26:35.589Z,15.10
2024-01-11T20:29:03.797Z,15.90
2024-01-11T20:31:32.912Z,14.60
2024-01-11T20:34:04.096Z,16.70
2024-01-11T20:36:32.458Z,15.20
2024-01-11T20:39:00.834Z,15.30
2024-01-11T20:41:29.116Z,16.90
2024-01-11T20:43:57.437Z,15.30
2024-01-11T20:46:25.812Z,14.70
2024-01-11T20:48:54.108Z,15.70
2024-01-11T20:51:22.279Z,14.10
2024-01-11T20:53:51.661Z,14.80
2024-01-11T20:56:19.873Z,20.20
2024-01-11T20:58:48.222Z,19.40
2024-01-11T21:01:16.706Z,16.60
2024-01-11T21:03:45.140Z,15.00
2024-01-11T21:06:14.625Z,16.60
2024-01-11T21:08:43.228Z,14.40
2024-01-11T21:11:11.512Z,14.40
2024-01-11T21:13:39.758Z,12.50
2024-01-11T21:16:07.900Z,12.40
2024-01-11T21:18:36.340Z,13.80
2024-01-11T21:21:04.859Z,13.70
2024-01-11T21:23:33.356Z,13.60
2024-01-11T21:26:01.596Z,14.50
2024-01-11T21:28:30.085Z,13.10
2024-01-11T21:30:58.412Z,14.40
2024-01-11T21:33:26.725Z,12.80
2024-01-11T21:35:54.978Z,13.20
2024-01-11T21:38:23.195Z,14.70
2024-01-11T21:40:53.022Z,13.20
2024-01-11T21:43:21.174Z,14.00
2024-01-11T21:45:49.225Z,13.90
2024-01-11T21:48:17.637Z,13.70
2024-01-11T21:50:46.011Z,13.60
2024-01-11T21:53:14.679Z,14.00
2024-01-11T21:55:42.949Z,11.50
2024-01-11T21:58:11.114Z,11.70
2024-01-11T22:00:39.322Z,11.40
2024-01-11T22:03:08.411Z,12.20
2024-01-11T22:05:36.870Z,12.00
2024-01-11T22:08:05.485Z,11.50
2024-01-11T22:10:33.523Z,10.70
2024-01-11T22:13:01.688Z,11.00
2024-01-11T22:15:30.166Z,11.50
2024-01-11T22:17:58.619Z,11.10
2024-01-11T22:20:27.195Z,10.90
2024-01-11T22:22:55.912Z,10.80
2024-01-11T22:25:24.397Z,10.20
2024-01-11T22:27:53.195Z,10.20
2024-01-11T22:30:21.693Z,11.20
2024-01-11T22:32:50.135Z,11.90
2024-01-11T22:35:19.600Z,11.00
2024-01-11T22:37:47.921Z,10.60
2024-01-11T22:40:16.096Z,11.50
2024-01-11T22:42:44.281Z,11.70
2024-01-11T22:45:12.438Z,12.20
2024-01-11T22:47:41.178Z,11.20
2024-01-11T22:50:10.103Z,13.20
2024-01-11T22:52:40.052Z,12.40
2024-01-11T22:55:08.302Z,12.60
2024-01-11T22:57:36.465Z,11.70
2024-01-11T23:00:22.035Z,12.20
2024-01-11T23:02:51.820Z,12.40
2024-01-11T23:05:20.926Z,12.00
2024-01-11T23:07:49.434Z,11.10
2024-01-11T23:10:18.364Z,10.90
2024-01-11T23:12:46.608Z,11.60
2024-01-11T23:15:14.776Z,10.60
2024-01-11T23:17:43.253Z,10.80
2024-01-11T23:20:12.296Z,11.20
2024-01-11T23:22:40.420Z,11.60
2024-01-11T23:25:09.229Z,10.80
2024-01-11T23:27:37.708Z,11.30
2024-01-11T23:30:06.594Z,11.70
2024-01-11T23:32:34.825Z,10.70
2024-01-11T23:35:03.238Z,11.60
2024-01-11T23:37:31.504Z,11.30
2024-01-11T23:39:59.694Z,11.60
2024-01-11T23:42:27.856Z,11.10
2024-01-11T23:44:56.234Z,11.40
2024-01-11T23:47:24.417Z,10.90
2024-01-11T23:49:52.723Z,11.80
2024-01-11T23:52:20.950Z,10.90
2024-01-11T23:54:49.024Z,12.20
2024-01-11T23:57:17.184Z,11.20
2024-01-11T23:59:46.099Z,12.50
